sensor_id;sensor_type;location;lat;lon;timestamp;pressure;altitude;pressure_sealevel;temperature;humidity
37142;BME280;23041;49.816;20.092;2022-07-10T00:00:44;97798.27;;;14.11;64.00
37142;BME280;23041;49.816;20.092;2022-07-10T00:03:11;97801.75;;;14.07;64.07
37142;BME280;23041;49.816;20.092;2022-07-10T00:05:38;97796.38;;;14.03;64.14
37142;BME280;23041;49.816;20.092;2022-07-10T00:08:04;97796.95;;;13.98;64.20
37142;BME280;23041;49.816;20.092;2022-07-10T00:10:31;97777.69;;;13.85;64.29
37142;BME280;23041;49.816;20.092;2022-07-10T00:12:59;97783.75;;;13.76;64.41
37142;BME280;23041;49.816;20.092;2022-07-10T00:15:25;97784.20;;;13.74;64.50
37142;BME280;23041;49.816;20.092;2022-07-10T00:17:51;97776.22;;;13.76;64.60
37142;BME280;23041;49.816;20.092;2022-07-10T00:20:20;97785.41;;;13.73;64.67
37142;BME280;23041;49.816;20.092;2022-07-10T00:22:46;97784.47;;;13.72;64.76
37142;BME280;23041;49.816;20.092;2022-07-10T00:25:13;97778.18;;;13.71;64.85
37142;BME280;23041;49.816;20.092;2022-07-10T00:27:40;97776.36;;;13.73;64.94
37142;BME280;23041;49.816;20.092;2022-07-10T00:30:09;97779.04;;;13.81;65.05
37142;BME280;23041;49.816;20.092;2022-07-10T00:32:36;97773.63;;;13.77;65.14
37142;BME280;23041;49.816;20.092;2022-07-10T00:35:03;97766.32;;;13.83;65.29
37142;BME280;23041;49.816;20.092;2022-07-10T00:37:30;97772.39;;;13.96;65.43
37142;BME280;23041;49.816;20.092;2022-07-10T00:39:57;97767.72;;;14.05;65.55
37142;BME280;23041;49.816;20.092;2022-07-10T00:42:23;97773.66;;;14.25;65.61
37142;BME280;23041;49.816;20.092;2022-07-10T00:44:50;97771.73;;;14.35;65.68
37142;BME280;23041;49.816;20.092;2022-07-10T00:47:16;97767.50;;;14.43;65.73
37142;BME280;23041;49.816;20.092;2022-07-10T00:49:44;97762.77;;;14.48;65.77
37142;BME280;23041;49.816;20.092;2022-07-10T00:52:13;97754.81;;;14.50;65.82
37142;BME280;23041;49.816;20.092;2022-07-10T00:54:42;97752.79;;;14.42;65.89
37142;BME280;23041;49.816;20.092;2022-07-10T00:57:10;97754.80;;;14.46;65.91
37142;BME280;23041;49.816;20.092;2022-07-10T00:59:38;97747.13;;;14.50;65.96
37142;BME280;23041;49.816;20.092;2022-07-10T01:02:05;97750.58;;;14.67;66.00
37142;BME280;23041;49.816;20.092;2022-07-10T01:04:32;97751.53;;;14.74;66.01
37142;BME280;23041;49.816;20.092;2022-07-10T01:06:59;97744.80;;;14.79;66.02
37142;BME280;23041;49.816;20.092;2022-07-10T01:09:26;97743.28;;;14.83;66.02
37142;BME280;23041;49.816;20.092;2022-07-10T01:11:56;97740.36;;;14.82;66.03
37142;BME280;23041;49.816;20.092;2022-07-10T01:14:25;97730.96;;;14.70;66.00
37142;BME280;23041;49.816;20.092;2022-07-10T01:16:52;97727.42;;;14.65;66.03
37142;BME280;23041;49.816;20.092;2022-07-10T01:19:19;97729.86;;;14.67;66.03
37142;BME280;23041;49.816;20.092;2022-07-10T01:21:46;97736.17;;;14.73;66.06
37142;BME280;23041;49.816;20.092;2022-07-10T01:24:12;97734.50;;;14.75;66.02
37142;BME280;23041;49.816;20.092;2022-07-10T01:26:39;97731.42;;;14.78;66.02
37142;BME280;23041;49.816;20.092;2022-07-10T01:29:10;97726.49;;;14.68;65.99
37142;BME280;23041;49.816;20.092;2022-07-10T01:31:37;97730.31;;;14.66;65.99
37142;BME280;23041;49.816;20.092;2022-07-10T01:34:06;97721.73;;;14.64;65.98
37142;BME280;23041;49.816;20.092;2022-07-10T01:36:36;97711.98;;;14.41;65.97
37142;BME280;23041;49.816;20.092;2022-07-10T01:39:04;97717.02;;;14.43;66.03
37142;BME280;23041;49.816;20.092;2022-07-10T01:41:31;97714.16;;;14.51;66.11
37142;BME280;23041;49.816;20.092;2022-07-10T01:43:58;97721.56;;;14.63;66.13
37142;BME280;23041;49.816;20.092;2022-07-10T01:46:25;97716.66;;;14.67;66.15
37142;BME280;23041;49.816;20.092;2022-07-10T01:48:52;97715.16;;;14.70;66.19
37142;BME280;23041;49.816;20.092;2022-07-10T01:51:19;97712.08;;;14.73;66.19
37142;BME280;23041;49.816;20.092;2022-07-10T01:53:45;97699.80;;;14.65;66.20
37142;BME280;23041;49.816;20.092;2022-07-10T01:56:13;97699.63;;;14.64;66.25
37142;BME280;23041;49.816;20.092;2022-07-10T01:58:41;97701.34;;;14.70;66.29
37142;BME280;23041;49.816;20.092;2022-07-10T02:01:07;97701.03;;;14.78;66.28
37142;BME280;23041;49.816;20.092;2022-07-10T02:03:34;97699.97;;;14.75;66.25
37142;BME280;23041;49.816;20.092;2022-07-10T02:06:19;97696.43;;;14.70;66.22
37142;BME280;23041;49.816;20.092;2022-07-10T02:08:45;97689.96;;;14.64;66.18
37142;BME280;23041;49.816;20.092;2022-07-10T02:11:12;97690.08;;;14.56;66.17
37142;BME280;23041;49.816;20.092;2022-07-10T02:13:38;97688.14;;;14.35;66.18
37142;BME280;23041;49.816;20.092;2022-07-10T02:16:05;97684.87;;;14.27;66.18
37142;BME280;23041;49.816;20.092;2022-07-10T02:18:32;97689.03;;;14.31;66.18
37142;BME280;23041;49.816;20.092;2022-07-10T02:20:58;97681.36;;;14.31;66.19
37142;BME280;23041;49.816;20.092;2022-07-10T02:23:24;97685.82;;;14.33;66.23
37142;BME280;23041;49.816;20.092;2022-07-10T02:25:51;97682.66;;;14.39;66.29
37142;BME280;23041;49.816;20.092;2022-07-10T02:28:17;97672.48;;;14.36;66.35
37142;BME280;23041;49.816;20.092;2022-07-10T02:30:43;97672.99;;;14.39;66.43
37142;BME280;23041;49.816;20.092;2022-07-10T02:33:10;97675.47;;;14.42;66.51
37142;BME280;23041;49.816;20.092;2022-07-10T02:35:36;97668.14;;;14.52;66.54
37142;BME280;23041;49.816;20.092;2022-07-10T02:38:02;97674.28;;;14.56;66.57
37142;BME280;23041;49.816;20.092;2022-07-10T02:40:29;97666.60;;;14.56;66.54
37142;BME280;23041;49.816;20.092;2022-07-10T02:42:55;97659.38;;;14.54;66.54
37142;BME280;23041;49.816;20.092;2022-07-10T02:45:21;97653.08;;;14.49;66.50
37142;BME280;23041;49.816;20.092;2022-07-10T02:47:47;97654.28;;;14.43;66.49
37142;BME280;23041;49.816;20.092;2022-07-10T02:50:14;97645.62;;;14.27;66.49
37142;BME280;23041;49.816;20.092;2022-07-10T02:52:40;97637.00;;;14.21;66.52
37142;BME280;23041;49.816;20.092;2022-07-10T02:55:07;97640.70;;;14.22;66.57
37142;BME280;23041;49.816;20.092;2022-07-10T02:57:34;97648.23;;;14.31;66.62
37142;BME280;23041;49.816;20.092;2022-07-10T03:00:00;97650.86;;;14.35;66.61
37142;BME280;23041;49.816;20.092;2022-07-10T03:02:26;97649.36;;;14.38;66.63
37142;BME280;23041;49.816;20.092;2022-07-10T03:04:53;97656.14;;;14.42;66.67
37142;BME280;23041;49.816;20.092;2022-07-10T03:07:19;97653.08;;;14.49;66.67
37142;BME280;23041;49.816;20.092;2022-07-10T03:09:45;97657.09;;;14.52;66.69
37142;BME280;23041;49.816;20.092;2022-07-10T03:12:12;97644.33;;;14.46;66.75
37142;BME280;23041;49.816;20.092;2022-07-10T03:14:38;97647.43;;;14.57;66.80
37142;BME280;23041;49.816;20.092;2022-07-10T03:17:05;97656.83;;;14.78;66.84
37142;BME280;23041;49.816;20.092;2022-07-10T03:19:31;97649.50;;;14.93;66.85
37142;BME280;23041;49.816;20.092;2022-07-10T03:21:59;97647.53;;;15.07;66.85
37142;BME280;23041;49.816;20.092;2022-07-10T03:24:25;97644.92;;;15.17;66.86
37142;BME280;23041;49.816;20.092;2022-07-10T03:26:52;97640.77;;;15.22;66.79
37142;BME280;23041;49.816;20.092;2022-07-10T03:29:18;97647.99;;;15.24;66.78
37142;BME280;23041;49.816;20.092;2022-07-10T03:31:44;97638.01;;;15.17;66.75
37142;BME280;23041;49.816;20.092;2022-07-10T03:34:11;97642.45;;;15.15;66.73
37142;BME280;23041;49.816;20.092;2022-07-10T03:36:37;97644.45;;;15.23;66.76
37142;BME280;23041;49.816;20.092;2022-07-10T03:39:03;97646.75;;;15.38;66.74
37142;BME280;23041;49.816;20.092;2022-07-10T03:41:30;97642.14;;;15.40;66.68
37142;BME280;23041;49.816;20.092;2022-07-10T03:43:56;97637.84;;;15.34;66.64
37142;BME280;23041;49.816;20.092;2022-07-10T03:46:22;97645.84;;;15.28;66.61
37142;BME280;23041;49.816;20.092;2022-07-10T03:48:49;97632.31;;;15.21;66.66
37142;BME280;23041;49.816;20.092;2022-07-10T03:51:15;97629.08;;;15.31;66.71
37142;BME280;23041;49.816;20.092;2022-07-10T03:53:41;97630.62;;;15.46;66.72
37142;BME280;23041;49.816;20.092;2022-07-10T03:56:08;97632.48;;;15.54;66.69
37142;BME280;23041;49.816;20.092;2022-07-10T03:58:34;97628.03;;;15.61;66.66
37142;BME280;23041;49.816;20.092;2022-07-10T04:01:00;97630.45;;;15.68;66.65
37142;BME280;23041;49.816;20.092;2022-07-10T04:03:26;97630.15;;;15.70;66.57
37142;BME280;23041;49.816;20.092;2022-07-10T04:05:53;97628.00;;;15.70;66.52
37142;BME280;23041;49.816;20.092;2022-07-10T04:08:19;97614.66;;;15.59;66.45
37142;BME280;23041;49.816;20.092;2022-07-10T04:10:46;97619.09;;;15.61;66.43
37142;BME280;23041;49.816;20.092;2022-07-10T04:13:12;97611.70;;;15.72;66.38
37142;BME280;23041;49.816;20.092;2022-07-10T04:15:38;97623.17;;;15.93;66.37
37142;BME280;23041;49.816;20.092;2022-07-10T04:18:05;97617.75;;;16.03;66.30
37142;BME280;23041;49.816;20.092;2022-07-10T04:20:31;97615.42;;;16.11;66.25
37142;BME280;23041;49.816;20.092;2022-07-10T04:22:58;97611.12;;;16.14;66.17
37142;BME280;23041;49.816;20.092;2022-07-10T04:25:24;97606.22;;;16.05;66.06
37142;BME280;23041;49.816;20.092;2022-07-10T04:27:50;97605.59;;;16.05;66.00
37142;BME280;23041;49.816;20.092;2022-07-10T04:30:17;97614.32;;;16.17;65.94
37142;BME280;23041;49.816;20.092;2022-07-10T04:32:43;97616.47;;;16.18;65.78
37142;BME280;23041;49.816;20.092;2022-07-10T04:35:09;97621.57;;;16.10;65.68
37142;BME280;23041;49.816;20.092;2022-07-10T04:37:35;97621.57;;;16.10;65.57
37142;BME280;23041;49.816;20.092;2022-07-10T04:40:02;97619.42;;;16.10;65.52
37142;BME280;23041;49.816;20.092;2022-07-10T04:42:30;97608.88;;;15.95;65.50
37142;BME280;23041;49.816;20.092;2022-07-10T04:44:57;97613.46;;;15.98;65.51
37142;BME280;23041;49.816;20.092;2022-07-10T04:47:23;97609.73;;;16.10;65.48
37142;BME280;23041;49.816;20.092;2022-07-10T04:49:49;97611.73;;;16.09;65.45
37142;BME280;23041;49.816;20.092;2022-07-10T05:02:53;97608.75;;;16.59;65.30
37142;BME280;23041;49.816;20.092;2022-07-10T05:05:20;97605.95;;;16.64;65.12
37142;BME280;23041;49.816;20.092;2022-07-10T05:07:46;97608.88;;;16.65;64.96
37142;BME280;23041;49.816;20.092;2022-07-10T05:10:12;97607.18;;;16.63;64.80
37142;BME280;23041;49.816;20.092;2022-07-10T05:12:39;97610.73;;;16.59;64.71
37142;BME280;23041;49.816;20.092;2022-07-10T05:15:06;97606.45;;;16.53;64.62
37142;BME280;23041;49.816;20.092;2022-07-10T05:17:33;97609.68;;;16.56;64.56
37142;BME280;23041;49.816;20.092;2022-07-10T05:20:00;97598.20;;;16.44;64.50
37142;BME280;23041;49.816;20.092;2022-07-10T05:22:26;97598.58;;;16.32;64.48
37142;BME280;23041;49.816;20.092;2022-07-10T05:24:55;97602.20;;;16.39;64.41
37142;BME280;23041;49.816;20.092;2022-07-10T05:27:21;97600.23;;;16.34;64.38
37142;BME280;23041;49.816;20.092;2022-07-10T05:29:47;97598.05;;;16.39;64.39
37142;BME280;23041;49.816;20.092;2022-07-10T05:32:14;97603.13;;;16.40;64.37
37142;BME280;23041;49.816;20.092;2022-07-10T05:34:40;97591.62;;;16.37;64.40
37142;BME280;23041;49.816;20.092;2022-07-10T05:37:07;97596.67;;;16.39;64.47
37142;BME280;23041;49.816;20.092;2022-07-10T05:39:33;97598.95;;;16.45;64.47
37142;BME280;23041;49.816;20.092;2022-07-10T05:42:00;97597.16;;;16.37;64.42
37142;BME280;23041;49.816;20.092;2022-07-10T05:44:26;97601.00;;;16.35;64.39
37142;BME280;23041;49.816;20.092;2022-07-10T05:46:52;97601.71;;;16.49;64.43
37142;BME280;23041;49.816;20.092;2022-07-10T05:49:19;97601.52;;;16.62;64.42
37142;BME280;23041;49.816;20.092;2022-07-10T05:51:45;97595.68;;;16.51;64.41
37142;BME280;23041;49.816;20.092;2022-07-10T05:54:11;97602.59;;;16.60;64.44
37142;BME280;23041;49.816;20.092;2022-07-10T05:56:38;97599.83;;;16.84;64.44
37142;BME280;23041;49.816;20.092;2022-07-10T05:59:04;97600.87;;;17.10;64.43
37142;BME280;23041;49.816;20.092;2022-07-10T06:01:31;97595.91;;;17.29;64.34
37142;BME280;23041;49.816;20.092;2022-07-10T06:03:57;97601.91;;;17.32;64.19
37142;BME280;23041;49.816;20.092;2022-07-10T06:06:23;97599.95;;;17.28;64.03
37142;BME280;23041;49.816;20.092;2022-07-10T06:08:50;97590.40;;;17.09;63.93
37142;BME280;23041;49.816;20.092;2022-07-10T06:11:16;97594.15;;;17.02;63.87
37142;BME280;23041;49.816;20.092;2022-07-10T06:13:42;97599.34;;;17.04;63.86
37142;BME280;23041;49.816;20.092;2022-07-10T06:16:08;97601.91;;;17.12;63.81
37142;BME280;23041;49.816;20.092;2022-07-10T06:18:35;97603.75;;;17.16;63.80
37142;BME280;23041;49.816;20.092;2022-07-10T06:21:02;97612.54;;;17.14;63.76
37142;BME280;23041;49.816;20.092;2022-07-10T06:23:29;97614.24;;;17.11;63.73
37142;BME280;23041;49.816;20.092;2022-07-10T06:25:56;97609.47;;;17.12;63.61
37142;BME280;23041;49.816;20.092;2022-07-10T06:28:22;97605.56;;;17.19;63.54
37142;BME280;23041;49.816;20.092;2022-07-10T06:30:48;97605.45;;;17.13;63.48
37142;BME280;23041;49.816;20.092;2022-07-10T06:33:15;97609.66;;;17.08;63.33
37142;BME280;23041;49.816;20.092;2022-07-10T06:35:41;97607.66;;;17.04;63.25
37142;BME280;23041;49.816;20.092;2022-07-10T06:38:08;97611.77;;;17.13;63.25
37142;BME280;23041;49.816;20.092;2022-07-10T06:40:36;97612.81;;;17.16;63.25
37142;BME280;23041;49.816;20.092;2022-07-10T06:43:03;97608.66;;;17.16;63.22
37142;BME280;23041;49.816;20.092;2022-07-10T06:45:30;97603.41;;;17.18;63.20
37142;BME280;23041;49.816;20.092;2022-07-10T06:47:57;97601.36;;;17.23;63.20
37142;BME280;23041;49.816;20.092;2022-07-10T06:50:28;97606.17;;;17.37;63.16
37142;BME280;23041;49.816;20.092;2022-07-10T06:52:59;97607.09;;;17.53;63.06
37142;BME280;23041;49.816;20.092;2022-07-10T06:55:26;97612.70;;;17.68;62.95
37142;BME280;23041;49.816;20.092;2022-07-10T06:57:53;97608.48;;;17.73;62.87
37142;BME280;23041;49.816;20.092;2022-07-10T07:00:21;97612.66;;;17.87;62.76
37142;BME280;23041;49.816;20.092;2022-07-10T07:02:48;97605.33;;;18.19;62.72
37142;BME280;23041;49.816;20.092;2022-07-10T07:05:14;97602.32;;;18.62;62.71
37142;BME280;23041;49.816;20.092;2022-07-10T07:07:41;97610.53;;;19.22;62.54
37142;BME280;23041;49.816;20.092;2022-07-10T07:10:10;97605.44;;;19.92;62.37
37142;BME280;23041;49.816;20.092;2022-07-10T07:12:36;97605.92;;;20.54;61.97
37142;BME280;23041;49.816;20.092;2022-07-10T07:15:04;97612.84;;;20.69;61.36
37142;BME280;23041;49.816;20.092;2022-07-10T07:17:32;97615.44;;;20.57;60.80
37142;BME280;23041;49.816;20.092;2022-07-10T07:20:04;97612.62;;;20.20;60.26
37142;BME280;23041;49.816;20.092;2022-07-10T07:22:50;97613.66;;;19.91;59.87
37142;BME280;23041;49.816;20.092;2022-07-10T07:25:35;97610.23;;;19.92;59.57
37142;BME280;23041;49.816;20.092;2022-07-10T07:28:01;97618.71;;;20.34;59.36
37142;BME280;23041;49.816;20.092;2022-07-10T07:30:27;97613.86;;;20.66;59.08
37142;BME280;23041;49.816;20.092;2022-07-10T07:32:54;97609.84;;;20.73;58.67
37142;BME280;23041;49.816;20.092;2022-07-10T07:35:21;97602.07;;;20.94;58.29
37142;BME280;23041;49.816;20.092;2022-07-10T07:37:49;97607.39;;;21.56;57.19
37142;BME280;23041;49.816;20.092;2022-07-10T07:40:18;97607.39;;;21.56;57.19
37142;BME280;23041;49.816;20.092;2022-07-10T07:42:47;97598.84;;;22.10;56.95
37142;BME280;23041;49.816;20.092;2022-07-10T07:45:13;97606.53;;;21.83;55.91
37142;BME280;23041;49.816;20.092;2022-07-10T07:47:51;97606.53;;;21.83;55.91
37142;BME280;23041;49.816;20.092;2022-07-10T07:50:26;97611.80;;;21.47;55.43
37142;BME280;23041;49.816;20.092;2022-07-10T07:52:54;97603.61;;;21.27;55.17
37142;BME280;23041;49.816;20.092;2022-07-10T07:55:22;97604.92;;;21.10;54.77
37142;BME280;23041;49.816;20.092;2022-07-10T07:57:51;97608.34;;;21.31;54.66
37142;BME280;23041;49.816;20.092;2022-07-10T08:00:23;97602.95;;;21.66;54.21
37142;BME280;23041;49.816;20.092;2022-07-10T08:02:51;97609.71;;;21.75;53.77
37142;BME280;23041;49.816;20.092;2022-07-10T08:05:19;97615.20;;;21.36;53.31
37142;BME280;23041;49.816;20.092;2022-07-10T08:07:50;97608.53;;;20.68;52.96
37142;BME280;23041;49.816;20.092;2022-07-10T08:10:18;97619.52;;;20.41;52.80
37142;BME280;23041;49.816;20.092;2022-07-10T08:12:47;97607.55;;;20.03;52.72
37142;BME280;23041;49.816;20.092;2022-07-10T08:15:15;97610.41;;;20.14;52.89
37142;BME280;23041;49.816;20.092;2022-07-10T08:17:43;97609.84;;;20.05;52.86
37142;BME280;23041;49.816;20.092;2022-07-10T08:20:15;97613.21;;;19.98;52.83
37142;BME280;23041;49.816;20.092;2022-07-10T08:22:41;97615.37;;;19.99;52.78
37142;BME280;23041;49.816;20.092;2022-07-10T08:25:09;97623.73;;;19.73;52.63
37142;BME280;23041;49.816;20.092;2022-07-10T08:27:36;97622.44;;;19.69;52.55
37142;BME280;23041;49.816;20.092;2022-07-10T08:30:03;97627.27;;;20.15;52.64
37142;BME280;23041;49.816;20.092;2022-07-10T08:32:35;97623.75;;;20.67;52.60
37142;BME280;23041;49.816;20.092;2022-07-10T08:35:04;97617.74;;;20.86;52.39
37142;BME280;23041;49.816;20.092;2022-07-10T08:37:44;97625.58;;;20.55;52.02
37142;BME280;23041;49.816;20.092;2022-07-10T08:40:13;97620.55;;;20.64;51.88
37142;BME280;23041;49.816;20.092;2022-07-10T08:42:41;97612.53;;;21.10;51.77
37142;BME280;23041;49.816;20.092;2022-07-10T08:45:10;97617.22;;;21.35;51.55
37142;BME280;23041;49.816;20.092;2022-07-10T08:47:40;97616.50;;;21.51;51.23
37142;BME280;23041;49.816;20.092;2022-07-10T08:50:17;97603.81;;;21.45;50.89
37142;BME280;23041;49.816;20.092;2022-07-10T08:52:51;97629.56;;;21.39;50.71
37142;BME280;23041;49.816;20.092;2022-07-10T08:55:25;97625.16;;;21.59;50.61
37142;BME280;23041;49.816;20.092;2022-07-10T08:57:54;97627.88;;;21.80;50.46
37142;BME280;23041;49.816;20.092;2022-07-10T09:00:22;97624.41;;;21.75;50.27
37142;BME280;23041;49.816;20.092;2022-07-10T09:02:49;97624.19;;;21.79;50.14
37142;BME280;23041;49.816;20.092;2022-07-10T09:05:15;97621.52;;;21.80;50.00
37142;BME280;23041;49.816;20.092;2022-07-10T09:07:42;97628.52;;;21.36;49.76
37142;BME280;23041;49.816;20.092;2022-07-10T09:10:11;97628.28;;;21.13;49.71
37142;BME280;23041;49.816;20.092;2022-07-10T09:13:00;97627.50;;;20.86;49.63
37142;BME280;23041;49.816;20.092;2022-07-10T09:15:31;97650.15;;;20.56;49.82
37142;BME280;23041;49.816;20.092;2022-07-10T09:18:05;97657.25;;;20.36;50.03
37142;BME280;23041;49.816;20.092;2022-07-10T09:20:38;97663.66;;;19.54;50.96
37142;BME280;23041;49.816;20.092;2022-07-10T09:25:45;97658.94;;;19.10;51.31
37142;BME280;23041;49.816;20.092;2022-07-10T09:28:13;97654.34;;;18.87;51.85
37142;BME280;23041;49.816;20.092;2022-07-10T09:30:43;97647.72;;;18.84;52.35
37142;BME280;23041;49.816;20.092;2022-07-10T09:33:29;97647.17;;;18.90;52.75
37142;BME280;23041;49.816;20.092;2022-07-10T09:35:59;97654.97;;;19.27;53.07
37142;BME280;23041;49.816;20.092;2022-07-10T09:41:23;97655.09;;;20.35;53.32
37142;BME280;23041;49.816;20.092;2022-07-10T09:43:59;97655.73;;;20.99;53.29
37142;BME280;23041;49.816;20.092;2022-07-10T09:49:08;97643.16;;;22.07;52.87
37142;BME280;23041;49.816;20.092;2022-07-10T09:51:44;97638.58;;;22.37;52.42
37142;BME280;23041;49.816;20.092;2022-07-10T09:54:12;97633.13;;;23.01;52.17
37142;BME280;23041;49.816;20.092;2022-07-10T09:56:41;97640.02;;;22.94;51.44
37142;BME280;23041;49.816;20.092;2022-07-10T09:59:10;97637.52;;;22.85;50.92
37142;BME280;23041;49.816;20.092;2022-07-10T10:01:42;97644.02;;;22.81;50.64
37142;BME280;23041;49.816;20.092;2022-07-10T10:04:10;97646.86;;;23.10;50.46
37142;BME280;23041;49.816;20.092;2022-07-10T10:06:39;97642.95;;;23.35;50.19
37142;BME280;23041;49.816;20.092;2022-07-10T10:09:24;97647.95;;;23.59;49.72
37142;BME280;23041;49.816;20.092;2022-07-10T10:12:03;97645.14;;;24.18;49.39
37142;BME280;23041;49.816;20.092;2022-07-10T10:14:24;97638.82;;;24.84;48.98
37142;BME280;23041;49.816;20.092;2022-07-10T10:16:53;97628.52;;;25.16;48.43
37142;BME280;23041;49.816;20.092;2022-07-10T10:19:25;97638.49;;;25.36;47.83
37142;BME280;23041;49.816;20.092;2022-07-10T10:22:12;97637.16;;;25.30;47.29
37142;BME280;23041;49.816;20.092;2022-07-10T10:24:41;97631.28;;;24.97;46.70
37142;BME280;23041;49.816;20.092;2022-07-10T10:27:08;97637.59;;;25.03;46.46
37142;BME280;23041;49.816;20.092;2022-07-10T10:29:37;97626.83;;;25.19;46.08
37142;BME280;23041;49.816;20.092;2022-07-10T10:32:04;97629.54;;;25.37;45.81
37142;BME280;23041;49.816;20.092;2022-07-10T10:34:43;97628.88;;;25.19;45.33
37142;BME280;23041;49.816;20.092;2022-07-10T10:40:09;97624.90;;;24.60;44.64
37142;BME280;23041;49.816;20.092;2022-07-10T10:42:40;97628.41;;;24.54;44.51
37142;BME280;23041;49.816;20.092;2022-07-10T10:45:33;97624.41;;;24.56;44.49
37142;BME280;23041;49.816;20.092;2022-07-10T10:53:22;97611.78;;;25.17;43.97
37142;BME280;23041;49.816;20.092;2022-07-10T10:58:41;97610.16;;;25.52;43.03
37142;BME280;23041;49.816;20.092;2022-07-10T11:01:24;97601.28;;;25.60;42.69
37142;BME280;23041;49.816;20.092;2022-07-10T11:06:42;97600.18;;;25.82;42.22
37142;BME280;23041;49.816;20.092;2022-07-10T11:09:24;97606.67;;;25.46;41.82
37142;BME280;23041;49.816;20.092;2022-07-10T11:12:08;97616.20;;;25.31;41.83
37142;BME280;23041;49.816;20.092;2022-07-10T11:14:40;97612.04;;;25.07;41.64
37142;BME280;23041;49.816;20.092;2022-07-10T11:17:13;97612.73;;;24.64;41.43
37142;BME280;23041;49.816;20.092;2022-07-10T11:19:40;97617.27;;;24.43;41.32
37142;BME280;23041;49.816;20.092;2022-07-10T11:22:25;97626.98;;;24.42;41.22
37142;BME280;23041;49.816;20.092;2022-07-10T11:28:21;97630.03;;;23.50;41.07
37142;BME280;23041;49.816;20.092;2022-07-10T11:30:52;97625.07;;;22.69;41.12
37142;BME280;23041;49.816;20.092;2022-07-10T11:33:20;97631.05;;;21.94;41.31
37142;BME280;23041;49.816;20.092;2022-07-10T11:35:53;97636.12;;;21.30;41.69
37142;BME280;23041;49.816;20.092;2022-07-10T11:38:22;97632.89;;;20.95;42.19
37142;BME280;23041;49.816;20.092;2022-07-10T11:40:50;97631.71;;;20.64;42.57
37142;BME280;23041;49.816;20.092;2022-07-10T11:43:19;97635.06;;;20.53;42.87
37142;BME280;23041;49.816;20.092;2022-07-10T11:45:47;97629.45;;;20.68;43.12
37142;BME280;23041;49.816;20.092;2022-07-10T11:48:17;97626.38;;;21.09;43.35
37142;BME280;23041;49.816;20.092;2022-07-10T11:50:45;97624.22;;;21.95;43.62
37142;BME280;23041;49.816;20.092;2022-07-10T11:53:11;97619.47;;;22.58;43.54
37142;BME280;23041;49.816;20.092;2022-07-10T11:55:38;97613.88;;;22.81;43.40
37142;BME280;23041;49.816;20.092;2022-07-10T11:58:15;97608.91;;;22.80;43.04
37142;BME280;23041;49.816;20.092;2022-07-10T12:00:42;97610.19;;;22.79;42.94
37142;BME280;23041;49.816;20.092;2022-07-10T12:03:21;97605.47;;;22.86;42.81
37142;BME280;23041;49.816;20.092;2022-07-10T12:05:48;97599.27;;;23.10;42.63
37142;BME280;23041;49.816;20.092;2022-07-10T12:08:16;97595.41;;;23.42;42.50
37142;BME280;23041;49.816;20.092;2022-07-10T12:10:43;97596.76;;;23.58;42.22
37142;BME280;23041;49.816;20.092;2022-07-10T12:13:12;97588.95;;;23.81;42.01
37142;BME280;23041;49.816;20.092;2022-07-10T12:15:42;97593.42;;;23.95;42.01
37142;BME280;23041;49.816;20.092;2022-07-10T12:18:18;97587.38;;;24.04;41.94
37142;BME280;23041;49.816;20.092;2022-07-10T12:20:47;97586.61;;;24.03;41.68
37142;BME280;23041;49.816;20.092;2022-07-10T12:23:15;97585.09;;;24.02;41.44
37142;BME280;23041;49.816;20.092;2022-07-10T12:25:44;97593.33;;;24.42;41.26
37142;BME280;23041;49.816;20.092;2022-07-10T12:28:11;97594.67;;;24.48;41.11
37142;BME280;23041;49.816;20.092;2022-07-10T12:30:42;97599.56;;;24.29;40.85
37142;BME280;23041;49.816;20.092;2022-07-10T12:33:14;97605.72;;;24.05;40.63
37142;BME280;23041;49.816;20.092;2022-07-10T12:35:53;97610.01;;;23.29;40.29
37142;BME280;23041;49.816;20.092;2022-07-10T12:38:25;97621.65;;;22.53;40.14
37142;BME280;23041;49.816;20.092;2022-07-10T12:41:13;97630.53;;;21.79;40.15
37142;BME280;23041;49.816;20.092;2022-07-10T12:43:38;97627.12;;;21.36;40.46
37142;BME280;23041;49.816;20.092;2022-07-10T12:46:23;97631.43;;;21.10;40.96
37142;BME280;23041;49.816;20.092;2022-07-10T12:49:09;97630.63;;;20.99;41.24
37142;BME280;23041;49.816;20.092;2022-07-10T12:51:44;97626.81;;;21.61;41.68
37142;BME280;23041;49.816;20.092;2022-07-10T12:54:34;97614.83;;;22.21;41.75
37142;BME280;23041;49.816;20.092;2022-07-10T12:57:04;97615.81;;;22.57;41.60
37142;BME280;23041;49.816;20.092;2022-07-10T12:59:37;97610.84;;;22.62;41.49
37142;BME280;23041;49.816;20.092;2022-07-10T13:04:58;97616.83;;;22.48;41.36
37142;BME280;23041;49.816;20.092;2022-07-10T13:07:30;97621.05;;;22.31;41.26
37142;BME280;23041;49.816;20.092;2022-07-10T13:10:02;97623.16;;;22.76;41.33
37142;BME280;23041;49.816;20.092;2022-07-10T13:12:31;97617.20;;;22.73;41.24
37142;BME280;23041;49.816;20.092;2022-07-10T13:14:58;97623.87;;;22.99;41.21
37142;BME280;23041;49.816;20.092;2022-07-10T13:17:24;97624.42;;;22.87;41.04
37142;BME280;23041;49.816;20.092;2022-07-10T13:19:51;97620.31;;;22.99;40.98
37142;BME280;23041;49.816;20.092;2022-07-10T13:22:17;97613.92;;;23.33;40.93
37142;BME280;23041;49.816;20.092;2022-07-10T13:24:44;97619.22;;;23.71;40.82
37142;BME280;23041;49.816;20.092;2022-07-10T13:27:10;97612.17;;;23.58;40.33
37142;BME280;23041;49.816;20.092;2022-07-10T13:29:36;97610.70;;;23.41;39.75
37142;BME280;23041;49.816;20.092;2022-07-10T13:32:03;97615.86;;;23.54;39.35
37142;BME280;23041;49.816;20.092;2022-07-10T13:34:30;97614.46;;;23.54;38.97
37142;BME280;23041;49.816;20.092;2022-07-10T13:36:57;97619.81;;;23.29;38.54